TimeCDT,TemperatureF,Dew PointF,Humidity,Sea Level PressureIn,VisibilityMPH,Wind Direction,Wind SpeedMPH,Gust SpeedMPH,PrecipitationIn,Events,Conditions,WindDirDegrees,DateUTC
12:54 AM,62.1,55.9,80,30.14,10.0,Calm,Calm,-,N/A,,Scattered Clouds,0,2013-08-16 05:54:00
1:54 AM,63.0,55.9,78,30.14,10.0,Calm,Calm,-,N/A,,Overcast,0,2013-08-16 06:54:00
2:54 AM,62.1,57.0,84,30.14,10.0,Calm,Calm,-,N/A,,Overcast,0,2013-08-16 07:54:00
3:54 AM,63.0,57.0,81,30.14,10.0,Calm,Calm,-,N/A,,Overcast,0,2013-08-16 08:54:00
4:54 AM,62.1,55.9,80,30.14,10.0,Calm,Calm,-,N/A,,Overcast,0,2013-08-16 09:54:00
5:54 AM,59.0,55.9,90,30.16,10.0,Calm,Calm,-,N/A,,Partly Cloudy,0,2013-08-16 10:54:00
6:54 AM,60.1,55.0,83,30.16,10.0,NE,3.5,-,N/A,,Clear,50,2013-08-16 11:54:00
7:54 AM,64.9,55.9,73,30.17,10.0,NE,5.8,-,N/A,,Clear,50,2013-08-16 12:54:00
8:54 AM,69.1,55.9,63,30.18,10.0,ENE,5.8,-,N/A,,Clear,60,2013-08-16 13:54:00
9:54 AM,73.0,54.0,51,30.18,10.0,ENE,10.4,-,N/A,,Clear,70,2013-08-16 14:54:00
10:54 AM,75.9,53.1,45,30.18,10.0,NNE,6.9,-,N/A,,Clear,30,2013-08-16 15:54:00
11:54 AM,75.9,52.0,43,30.18,10.0,Variable,4.6,-,N/A,,Clear,0,2013-08-16 16:54:00
12:54 PM,77.0,52.0,42,30.17,10.0,North,5.8,-,N/A,,Mostly Cloudy,10,2013-08-16 17:54:00
1:54 PM,79.0,51.1,38,30.16,10.0,NE,9.2,-,N/A,,Mostly Cloudy,50,2013-08-16 18:54:00
2:54 PM,80.1,48.9,34,30.14,10.0,Variable,4.6,-,N/A,,Partly Cloudy,0,2013-08-16 19:54:00
3:54 PM,78.1,48.9,36,30.13,10.0,NE,8.1,-,N/A,,Scattered Clouds,50,2013-08-16 20:54:00
4:54 PM,79.0,50.0,36,30.14,10.0,Variable,4.6,-,N/A,,Scattered Clouds,0,2013-08-16 21:54:00
5:54 PM,79.0,51.1,38,30.14,10.0,East,5.8,-,N/A,,Mostly Cloudy,90,2013-08-16 22:54:00
6:54 PM,77.0,53.1,43,30.14,10.0,East,3.5,-,N/A,,Partly Cloudy,100,2013-08-16 23:54:00
7:54 PM,71.1,54.0,55,30.15,10.0,Calm,Calm,-,N/A,,Clear,0,2013-08-17 00:54:00
8:54 PM,66.9,55.0,66,30.16,10.0,Calm,Calm,-,N/A,,Clear,0,2013-08-17 01:54:00
9:54 PM,64.9,55.9,73,30.17,10.0,Calm,Calm,-,N/A,,Partly Cloudy,0,2013-08-17 02:54:00
10:54 PM,63.0,55.9,78,30.17,10.0,Calm,Calm,-,N/A,,Partly Cloudy,0,2013-08-17 03:54:00
11:54 PM,63.0,55.9,78,30.18,10.0,Calm,Calm,-,N/A,,Clear,0,2013-08-17 04:54:00